Time;durP1;ratioP1;P1;durP2;ratioP2;P2;SDS_P1;SDS_P2;PMS_P1;PMS_P2;Temp;Humidity;BMP_temperature;BMP_pressure;BME280_temperature;BME280_humidity;BME280_pressure;Samples;Min_cycle;Max_cycle;Signal;HPM_P1;HPM_P2
2022/04/19 00:01:12;;;;;;;3.77;2.97;;;7.30;99.90;;;;;;5142795;27;20657;-82
2022/04/19 00:03:40;;;;;;;3.40;2.57;;;7.20;99.90;;;;;;5146325;27;22222;-81
2022/04/19 00:06:07;;;;;;;3.07;2.77;;;7.20;99.90;;;;;;5144328;27;20622;-81
2022/04/19 00:08:34;;;;;;;2.50;2.30;;;7.30;99.90;;;;;;5141411;27;21215;-81
2022/04/19 00:11:02;;;;;;;2.30;2.20;;;7.10;99.90;;;;;;5142880;27;20649;-81
2022/04/19 00:13:29;;;;;;;3.20;2.90;;;6.70;99.90;;;;;;5143714;27;20645;-81
2022/04/19 00:15:56;;;;;;;3.33;3.03;;;7.00;99.90;;;;;;5145803;27;21033;-81
2022/04/19 00:18:23;;;;;;;2.57;2.37;;;6.50;99.90;;;;;;5141998;27;21191;-81
2022/04/19 00:20:51;;;;;;;2.87;2.67;;;6.90;99.90;;;;;;5146319;27;20648;-81
2022/04/19 00:23:18;;;;;;;3.23;2.97;;;7.10;99.90;;;;;;5139204;27;20657;-81
2022/04/19 00:25:50;;;;;;;3.30;3.03;;;6.90;99.90;;;;;;5144108;27;20627;-81
2022/04/19 00:28:17;;;;;;;3.43;3.13;;;6.90;99.90;;;;;;5145554;27;20675;-81
2022/04/19 00:30:46;;;;;;;3.10;2.73;;;6.50;99.90;;;;;;5111779;27;20696;-81
2022/04/19 00:33:12;;;;;;;3.50;3.30;;;7.00;99.90;;;;;;5145699;27;20926;-81
2022/04/19 00:35:39;;;;;;;3.40;3.10;;;6.80;99.90;;;;;;5145078;27;20671;-81
2022/04/19 00:38:07;;;;;;;4.90;3.47;;;6.80;99.90;;;;;;5146053;27;21160;-81
2022/04/19 00:40:35;;;;;;;3.40;3.20;;;6.60;99.90;;;;;;5145960;27;20649;-81
2022/04/19 00:43:02;;;;;;;5.67;3.23;;;7.00;99.90;;;;;;5145973;27;20979;-81
2022/04/19 00:45:31;;;;;;;3.63;2.90;;;6.70;99.90;;;;;;5141812;27;20612;-81
2022/04/19 00:47:58;;;;;;;3.03;2.83;;;6.20;99.90;;;;;;5138979;27;20712;-81
2022/04/19 00:50:25;;;;;;;3.70;3.40;;;6.70;99.90;;;;;;5143538;27;21035;-81
2022/04/19 00:52:52;;;;;;;5.80;4.17;;;6.40;99.90;;;;;;5144651;27;20645;-81
2022/04/19 00:55:20;;;;;;;4.00;3.57;;;6.40;99.90;;;;;;5146318;27;20661;-81
2022/04/19 00:57:47;;;;;;;4.93;3.33;;;6.50;99.90;;;;;;5144710;27;20629;-81
2022/04/19 01:00:16;;;;;;;3.50;3.00;;;6.60;99.90;;;;;;5145157;27;20649;-81
2022/04/19 01:02:43;;;;;;;3.50;3.20;;;6.70;99.90;;;;;;5146830;27;20636;-81
2022/04/19 01:05:11;;;;;;;3.07;2.87;;;5.90;99.90;;;;;;5145247;27;20621;-81
2022/04/19 01:07:39;;;;;;;4.07;3.77;;;6.50;99.90;;;;;;5145998;27;21194;-82
2022/04/19 01:10:07;;;;;;;3.40;3.10;;;6.30;99.90;;;;;;5143304;27;20656;-82
2022/04/19 01:15:19;;;;;;;6.60;6.10;;;6.20;99.90;;;;;;5144021;27;21059;-82
2022/04/19 01:17:47;;;;;;;10.33;9.00;;;6.30;99.90;;;;;;5146820;27;20621;-82
2022/04/19 01:20:14;;;;;;;17.67;16.07;;;6.10;99.90;;;;;;5147048;27;20647;-81
2022/04/19 01:22:43;;;;;;;14.97;13.57;;;6.10;99.90;;;;;;5135752;27;20609;-81
2022/04/19 01:25:11;;;;;;;20.67;18.87;;;6.10;99.90;;;;;;5144612;27;20678;-83
2022/04/19 01:27:39;;;;;;;28.10;25.80;;;6.20;99.90;;;;;;5144974;27;21186;-81
2022/04/19 01:30:08;;;;;;;31.50;28.90;;;6.00;99.90;;;;;;5146009;27;20660;-81
2022/04/19 01:32:36;;;;;;;35.00;31.93;;;6.20;99.90;;;;;;5145924;27;21183;-82
2022/04/19 01:35:11;;;;;;;34.93;32.10;;;6.20;99.90;;;;;;5141947;27;20730;-82
2022/04/19 01:37:39;;;;;;;36.33;33.13;;;6.10;99.90;;;;;;5147183;27;21184;-82
2022/04/19 01:40:18;;;;;;;34.93;31.90;;;6.10;99.90;;;;;;5140416;27;20676;-81
2022/04/19 01:42:46;;;;;;;38.17;34.97;;;6.10;99.90;;;;;;5147932;27;21005;-81
2022/04/19 01:45:13;;;;;;;35.33;32.43;;;6.00;99.90;;;;;;5145653;27;21044;-81
2022/04/19 01:47:41;;;;;;;33.07;30.20;;;5.90;99.90;;;;;;5143627;27;21168;-81
2022/04/19 01:50:09;;;;;;;29.30;26.87;;;5.90;99.90;;;;;;5143794;27;20650;-82
2022/04/19 01:52:36;;;;;;;28.17;25.70;;;6.00;99.90;;;;;;5141090;27;21043;-82
2022/04/19 01:55:04;;;;;;;25.53;23.20;;;5.90;99.90;;;;;;5144387;27;21002;-82
2022/04/19 01:57:33;;;;;;;23.53;21.60;;;5.90;99.90;;;;;;5144895;27;20665;-82
2022/04/19 02:00:00;;;;;;;22.57;20.67;;;5.70;99.90;;;;;;5145630;27;20657;-81
2022/04/19 02:02:27;;;;;;;20.40;18.70;;;5.70;99.90;;;;;;5144751;27;20633;-81
2022/04/19 02:04:53;;;;;;;19.30;17.70;;;5.90;99.90;;;;;;5142637;27;20618;-81
2022/04/19 02:07:20;;;;;;;18.30;16.77;;;5.50;99.90;;;;;;5147066;27;20613;-81
2022/04/19 02:09:47;;;;;;;15.87;14.47;;;5.70;99.90;;;;;;5141715;27;20641;-81
2022/04/19 02:12:14;;;;;;;14.43;13.23;;;5.20;99.90;;;;;;5144297;27;20656;-81
2022/04/19 02:14:42;;;;;;;16.07;14.70;;;5.50;99.90;;;;;;5143146;27;20925;-81
2022/04/19 02:17:10;;;;;;;14.33;13.07;;;5.90;99.90;;;;;;5134768;27;20755;-82
2022/04/19 02:19:37;;;;;;;12.70;11.70;;;5.60;99.90;;;;;;5140606;27;20657;-82
2022/04/19 02:22:06;;;;;;;12.90;11.70;;;5.70;99.90;;;;;;5144032;27;20632;-82
2022/04/19 02:24:33;;;;;;;12.30;11.30;;;5.60;99.90;;;;;;5142274;27;20629;-82
2022/04/19 02:27:00;;;;;;;12.60;10.57;;;5.50;99.90;;;;;;5140509;27;20636;-81
2022/04/19 02:29:28;;;;;;;12.33;11.10;;;5.00;99.90;;;;;;5144569;27;21182;-81
2022/04/19 02:31:56;;;;;;;12.83;11.23;;;5.30;99.90;;;;;;5142845;27;20639;-80
2022/04/19 02:34:22;;;;;;;10.00;8.90;;;5.10;99.90;;;;;;5142620;27;20630;-81
2022/04/19 02:36:49;;;;;;;11.57;8.97;;;5.10;99.90;;;;;;5139941;27;20801;-81
2022/04/19 02:39:16;;;;;;;9.97;8.97;;;5.30;99.90;;;;;;5142721;27;21653;-80
2022/04/19 02:41:43;;;;;;;8.33;7.53;;;5.60;99.90;;;;;;5145262;27;20627;-81
2022/04/19 02:44:10;;;;;;;7.80;7.20;;;5.50;99.90;;;;;;5144275;27;20637;-81
2022/04/19 02:46:37;;;;;;;8.47;7.60;;;5.40;99.90;;;;;;5138289;27;20626;-82
2022/04/19 02:49:05;;;;;;;8.20;7.57;;;5.40;99.90;;;;;;5136547;27;20988;-82
2022/04/19 02:51:33;;;;;;;8.30;6.13;;;5.30;99.90;;;;;;5143228;27;20659;-81
2022/04/19 02:54:00;;;;;;;7.03;6.20;;;5.20;99.90;;;;;;5143145;27;20647;-82
2022/04/19 02:56:27;;;;;;;7.47;6.73;;;4.80;99.90;;;;;;5142585;27;20687;-82
2022/04/19 02:58:54;;;;;;;5.70;5.30;;;5.00;99.90;;;;;;5139654;27;20632;-82
2022/04/19 03:01:20;;;;;;;7.27;5.57;;;5.40;99.90;;;;;;5138263;27;20665;-81
2022/04/19 03:03:47;;;;;;;6.20;5.70;;;5.20;99.90;;;;;;5137789;27;21068;-81
2022/04/19 03:06:15;;;;;;;6.93;6.33;;;5.10;99.90;;;;;;5141486;27;20973;-81
2022/04/19 03:08:42;;;;;;;8.00;7.30;;;5.00;99.90;;;;;;5142641;27;20628;-81
2022/04/19 03:11:08;;;;;;;7.93;7.30;;;5.10;99.90;;;;;;5144140;27;20651;-81
2022/04/19 03:13:36;;;;;;;9.20;8.43;;;5.00;99.90;;;;;;5142781;27;20675;-81
2022/04/19 03:16:04;;;;;;;9.37;8.67;;;5.20;99.90;;;;;;5143241;27;20716;-81
2022/04/19 03:18:31;;;;;;;8.30;7.60;;;5.10;99.90;;;;;;5140727;27;20627;-81
2022/04/19 03:20:58;;;;;;;8.80;8.00;;;5.10;99.90;;;;;;5142071;27;20653;-81
2022/04/19 03:28:55;;;;;;;8.00;7.30;;;4.90;99.90;;;;;;5140714;27;20675;-81
2022/04/19 03:31:23;;;;;;;6.50;6.00;;;5.00;99.90;;;;;;5141150;27;21404;-83
2022/04/19 03:33:51;;;;;;;7.40;6.73;;;4.90;99.90;;;;;;5141944;27;20685;-81
2022/04/19 03:36:18;;;;;;;6.20;5.70;;;5.00;99.90;;;;;;5141418;27;20663;-81
2022/04/19 03:38:46;;;;;;;6.10;5.70;;;5.10;99.90;;;;;;5136328;27;20632;-81
2022/04/19 03:41:13;;;;;;;6.20;5.70;;;5.00;99.90;;;;;;5144286;27;21068;-81
2022/04/19 03:43:41;;;;;;;6.07;5.50;;;5.10;99.90;;;;;;5140521;27;20636;-81
2022/04/19 03:46:08;;;;;;;5.70;5.20;;;4.90;99.90;;;;;;5141464;27;21151;-81
2022/04/19 03:48:35;;;;;;;4.83;4.43;;;4.40;99.90;;;;;;5140756;27;20625;-81
2022/04/19 03:51:02;;;;;;;5.23;4.83;;;5.00;99.90;;;;;;5140214;27;20653;-82
2022/04/19 03:53:29;;;;;;;5.60;5.10;;;4.90;99.90;;;;;;5141931;27;20639;-82
2022/04/19 03:55:58;;;;;;;5.63;5.23;;;5.00;99.90;;;;;;5137972;27;20634;-82
2022/04/19 03:58:25;;;;;;;4.93;4.60;;;4.90;99.90;;;;;;5139523;27;20707;-82
2022/04/19 04:00:52;;;;;;;5.40;4.90;;;4.80;99.90;;;;;;5141799;27;20750;-82
2022/04/19 04:03:19;;;;;;;6.10;5.50;;;4.80;99.90;;;;;;5140645;27;20651;-83
2022/04/19 04:05:46;;;;;;;4.87;4.33;;;4.20;99.90;;;;;;5140568;27;20616;-82
2022/04/19 04:08:12;;;;;;;5.73;5.27;;;4.70;99.90;;;;;;5142758;27;20621;-82
2022/04/19 04:10:39;;;;;;;7.73;7.00;;;4.60;99.90;;;;;;5145357;27;20751;-82
2022/04/19 04:13:07;;;;;;;6.57;5.90;;;4.60;99.90;;;;;;5139920;27;20628;-82
2022/04/19 04:15:34;;;;;;;5.67;5.23;;;4.20;99.90;;;;;;5142942;27;20625;-82
2022/04/19 04:18:01;;;;;;;6.50;6.00;;;4.70;99.90;;;;;;5141805;27;20696;-82
2022/04/19 04:20:27;;;;;;;5.83;5.43;;;4.50;99.90;;;;;;5144422;27;20984;-82
2022/04/19 04:22:54;;;;;;;5.57;5.03;;;4.40;99.90;;;;;;5143309;27;20632;-82
2022/04/19 04:25:21;;;;;;;6.20;5.70;;;4.50;99.90;;;;;;5139733;27;21237;-83
2022/04/19 04:27:48;;;;;;;5.83;5.33;;;4.40;99.90;;;;;;5133443;27;20624;-83
2022/04/19 04:30:16;;;;;;;5.30;4.90;;;4.50;99.90;;;;;;5144711;27;21453;-82
2022/04/19 04:32:44;;;;;;;5.77;5.27;;;4.40;99.90;;;;;;5148806;27;20720;-83
2022/04/19 04:35:11;;;;;;;6.63;5.80;;;4.30;99.90;;;;;;5145373;27;20645;-82
2022/04/19 04:37:38;;;;;;;5.60;5.07;;;4.30;99.90;;;;;;5145728;27;20667;-82
2022/04/19 04:40:05;;;;;;;5.23;4.63;;;4.60;99.90;;;;;;5148209;27;20643;-83
2022/04/19 04:42:32;;;;;;;5.60;5.10;;;4.40;99.90;;;;;;5145783;27;20641;-83
2022/04/19 04:44:58;;;;;;;5.00;4.63;;;4.30;99.90;;;;;;5146750;27;20634;-82
2022/04/19 04:50:11;;;;;;;5.53;4.90;;;4.20;99.90;;;;;;5147220;27;20992;-82
2022/04/19 04:52:38;;;;;;;5.27;4.83;;;4.50;99.90;;;;;;5145088;27;20628;-81
2022/04/19 04:55:07;;;;;;;5.93;4.67;;;4.30;99.90;;;;;;5148141;27;20679;-83
2022/04/19 04:57:33;;;;;;;4.63;4.33;;;4.60;99.90;;;;;;5148024;27;20707;-80
2022/04/19 05:00:00;;;;;;;5.73;4.33;;;4.50;99.90;;;;;;5145777;27;20656;-81
2022/04/19 05:02:28;;;;;;;7.27;6.67;;;4.40;99.90;;;;;;5146595;27;20688;-81
2022/04/19 05:04:55;;;;;;;8.37;7.73;;;4.30;99.90;;;;;;5141668;27;20655;-80
2022/04/19 05:07:22;;;;;;;6.80;6.20;;;4.40;99.90;;;;;;5145668;27;20615;-81
2022/04/19 05:09:48;;;;;;;8.80;8.10;;;4.40;99.90;;;;;;5145975;27;20625;-81
2022/04/19 05:12:15;;;;;;;9.13;8.17;;;4.50;99.90;;;;;;5149460;27;20868;-82
2022/04/19 05:14:42;;;;;;;7.80;7.10;;;4.40;99.90;;;;;;5147644;27;20657;-82
2022/04/19 05:17:08;;;;;;;6.73;6.13;;;4.50;99.90;;;;;;5145196;27;20667;-82
2022/04/19 05:19:36;;;;;;;6.80;5.80;;;4.50;99.90;;;;;;5146780;27;20642;-82
2022/04/19 05:22:04;;;;;;;7.60;6.90;;;4.50;99.90;;;;;;5149544;27;21161;-82
2022/04/19 05:24:31;;;;;;;6.93;6.23;;;4.70;99.90;;;;;;5144939;27;20744;-82
2022/04/19 05:26:58;;;;;;;6.17;5.67;;;4.80;99.90;;;;;;5150130;27;20612;-82
2022/04/19 05:29:24;;;;;;;5.87;5.37;;;4.90;99.90;;;;;;5149438;27;21249;-81
2022/04/19 05:31:51;;;;;;;5.70;5.30;;;4.80;99.90;;;;;;5142660;27;20623;-83
2022/04/19 05:34:18;;;;;;;5.90;5.40;;;5.00;99.90;;;;;;5141976;27;20656;-82
2022/04/19 05:36:46;;;;;;;6.40;5.20;;;5.10;99.90;;;;;;5146753;27;20672;-83
2022/04/19 05:39:13;;;;;;;6.00;5.40;;;5.20;99.90;;;;;;5140801;27;21036;-84
2022/04/19 05:41:40;;;;;;;5.67;5.27;;;5.20;99.90;;;;;;5144844;27;20670;-84
2022/04/19 05:44:07;;;;;;;6.17;5.17;;;5.30;99.90;;;;;;5145842;27;20652;-84
2022/04/19 05:46:36;;;;;;;5.53;5.13;;;5.30;99.90;;;;;;5147371;27;20629;-84
2022/04/19 05:49:04;;;;;;;5.40;4.93;;;5.40;99.90;;;;;;5142472;27;20625;-84
2022/04/19 05:51:31;;;;;;;5.90;5.30;;;5.40;99.90;;;;;;5138371;27;20625;-83
2022/04/19 05:53:59;;;;;;;4.80;4.33;;;5.60;99.90;;;;;;5130532;27;20631;-83
2022/04/19 05:56:26;;;;;;;5.90;5.33;;;5.60;99.90;;;;;;5145602;27;20623;-82
2022/04/19 05:58:53;;;;;;;6.77;4.80;;;5.80;99.90;;;;;;5141829;27;21087;-83
2022/04/19 06:01:19;;;;;;;5.20;4.80;;;5.80;99.90;;;;;;5144291;27;20641;-83
2022/04/19 06:06:31;;;;;;;5.13;4.70;;;6.10;99.90;;;;;;5141295;27;20641;-82
2022/04/19 06:08:59;;;;;;;5.77;5.17;;;5.90;99.90;;;;;;5144004;27;20610;-82
2022/04/19 06:11:26;;;;;;;5.30;4.80;;;6.00;99.90;;;;;;5139177;27;20612;-82
2022/04/19 06:13:53;;;;;;;6.53;6.00;;;5.90;99.90;;;;;;5137728;27;20631;-83
2022/04/19 06:16:20;;;;;;;5.70;5.30;;;6.50;99.90;;;;;;5139213;27;20648;-82
2022/04/19 06:18:46;;;;;;;6.00;5.40;;;6.60;99.90;;;;;;5143348;27;20652;-82
2022/04/19 06:21:13;;;;;;;6.33;5.40;;;6.70;99.90;;;;;;5144647;27;20628;-82
2022/04/19 06:23:40;;;;;;;5.57;5.00;;;6.70;99.90;;;;;;5140578;27;20636;-82
2022/04/19 06:26:08;;;;;;;6.63;4.63;;;6.90;99.90;;;;;;5145140;27;20765;-82
2022/04/19 06:28:35;;;;;;;5.80;5.27;;;6.70;99.90;;;;;;5145064;27;20624;-82
2022/04/19 06:31:02;;;;;;;8.07;5.30;;;7.30;99.90;;;;;;5143213;27;20624;-82
2022/04/19 06:33:29;;;;;;;8.07;5.20;;;7.10;99.90;;;;;;5142597;27;20622;-82
2022/04/19 06:35:55;;;;;;;5.80;5.13;;;7.10;99.90;;;;;;5133977;27;20638;-82
2022/04/19 06:38:22;;;;;;;5.40;4.90;;;7.80;99.90;;;;;;5141260;27;20657;-82
2022/04/19 06:40:49;;;;;;;4.77;4.23;;;7.50;99.90;;;;;;5140480;27;20621;-82
2022/04/19 06:43:17;;;;;;;8.27;5.27;;;7.90;99.90;;;;;;5142443;27;21070;-81
2022/04/19 06:45:44;;;;;;;6.20;4.93;;;8.10;99.90;;;;;;5142322;27;20776;-81
2022/04/19 06:48:11;;;;;;;6.20;5.10;;;8.30;99.90;;;;;;5144014;27;20678;-81
2022/04/19 06:50:38;;;;;;;5.87;5.27;;;8.60;99.90;;;;;;5142990;27;20629;-81
2022/04/19 06:53:05;;;;;;;6.33;5.70;;;8.30;99.90;;;;;;5146597;27;20626;-81
2022/04/19 06:55:31;;;;;;;5.50;5.00;;;8.90;99.90;;;;;;5141756;27;20664;-81
2022/04/19 06:57:58;;;;;;;6.70;4.80;;;8.70;99.90;;;;;;5143873;27;20660;-81
2022/04/19 07:00:26;;;;;;;7.97;5.10;;;9.10;99.90;;;;;;5145545;27;20629;-81
2022/04/19 07:02:53;;;;;;;5.20;4.70;;;9.10;99.90;;;;;;5141953;27;20637;-81
2022/04/19 07:05:20;;;;;;;6.80;5.07;;;9.40;99.90;;;;;;5144674;27;21054;-81
2022/04/19 07:07:46;;;;;;;5.60;4.47;;;9.10;99.90;;;;;;5140884;27;20677;-81
2022/04/19 07:10:13;;;;;;;4.27;3.97;;;9.70;99.90;;;;;;5143765;27;20626;-81
2022/04/19 07:12:40;;;;;;;8.87;4.00;;;9.50;99.90;;;;;;5142072;27;20821;-81
2022/04/19 07:15:09;;;;;;;5.93;4.20;;;9.50;99.90;;;;;;5143671;27;20638;-81
2022/04/19 07:17:41;;;;;;;5.70;4.40;;;10.00;99.90;;;;;;5142898;27;20756;-81
2022/04/19 07:28:22;;;;;;;9.30;7.57;;;10.00;97.70;;;;;;5143044;27;21171;-81
2022/04/19 07:30:49;;;;;;;11.07;9.87;;;10.40;98.10;;;;;;5142731;27;21254;-83
2022/04/19 07:33:18;;;;;;;5.10;4.30;;;10.70;97.50;;;;;;5146248;27;20628;-81
2022/04/19 07:35:45;;;;;;;7.43;6.70;;;10.60;96.50;;;;;;5141209;27;20665;-82
2022/04/19 07:38:12;;;;;;;5.80;5.20;;;10.50;96.90;;;;;;5141556;27;20653;-81
2022/04/19 07:40:38;;;;;;;5.37;4.60;;;10.90;96.10;;;;;;5131970;27;21215;-84
2022/04/19 07:43:06;;;;;;;8.20;5.43;;;10.90;95.40;;;;;;5136398;27;20632;-84
2022/04/19 07:45:32;;;;;;;8.10;6.63;;;11.20;95.30;;;;;;5139345;27;20645;-84
2022/04/19 07:47:59;;;;;;;5.70;5.03;;;11.00;95.00;;;;;;5143086;27;20632;-84
2022/04/19 07:50:28;;;;;;;6.97;4.63;;;11.30;95.20;;;;;;5142891;27;20628;-84
2022/04/19 07:52:55;;;;;;;5.57;4.73;;;11.40;94.90;;;;;;5137172;27;20622;-84
2022/04/19 07:55:23;;;;;;;8.93;5.40;;;11.50;94.90;;;;;;5137952;27;21002;-84
2022/04/19 07:57:50;;;;;;;5.10;4.70;;;11.70;94.60;;;;;;5143471;27;20650;-83
2022/04/19 08:00:18;;;;;;;5.10;4.60;;;11.80;94.40;;;;;;5140688;27;20614;-83
2022/04/19 08:02:45;;;;;;;5.37;4.83;;;11.90;94.00;;;;;;5139994;27;20708;-83
2022/04/19 08:05:11;;;;;;;4.87;4.27;;;12.10;94.00;;;;;;5145270;27;20637;-83
2022/04/19 08:07:39;;;;;;;5.70;5.20;;;12.10;93.80;;;;;;5139210;27;21215;-83
2022/04/19 08:10:07;;;;;;;5.13;4.40;;;12.20;93.80;;;;;;5139788;27;20626;-83
2022/04/19 08:12:34;;;;;;;6.80;4.70;;;12.20;93.60;;;;;;5136891;27;20636;-83
2022/04/19 08:15:01;;;;;;;4.70;4.30;;;12.30;93.80;;;;;;5148307;27;20667;-85
2022/04/19 08:17:27;;;;;;;4.47;4.07;;;12.50;93.70;;;;;;5136794;27;20644;-84
2022/04/19 08:19:56;;;;;;;4.37;3.97;;;12.60;93.30;;;;;;5147438;27;20613;-82
2022/04/19 08:22:24;;;;;;;5.90;4.60;;;12.70;93.10;;;;;;5138587;27;20670;-82
2022/04/19 08:24:52;;;;;;;5.73;4.47;;;12.90;92.90;;;;;;5145099;27;20655;-84
2022/04/19 08:27:19;;;;;;;5.93;4.83;;;12.90;92.40;;;;;;5144572;27;21057;-83
2022/04/19 08:29:46;;;;;;;5.70;5.10;;;13.10;91.70;;;;;;5144315;27;21031;-83
2022/04/19 08:32:13;;;;;;;5.53;5.03;;;13.20;91.80;;;;;;5145715;27;21151;-83
2022/04/19 08:34:40;;;;;;;6.77;5.13;;;13.40;91.50;;;;;;5141788;27;20649;-83
2022/04/19 08:37:09;;;;;;;4.90;4.40;;;13.60;91.40;;;;;;5132404;27;20640;-83
2022/04/19 08:39:36;;;;;;;6.07;5.40;;;13.80;90.90;;;;;;5146252;27;20669;-83
2022/04/19 08:42:05;;;;;;;6.33;4.73;;;14.00;91.10;;;;;;5145508;27;20705;-83
2022/04/19 08:44:35;;;;;;;6.60;4.80;;;14.10;90.30;;;;;;5144643;27;20664;-83
2022/04/19 08:47:06;;;;;;;4.87;4.37;;;14.20;90.30;;;;;;5146776;27;20616;-83
2022/04/19 08:49:38;;;;;;;4.67;4.27;;;14.30;90.00;;;;;;5136631;27;20640;-84
2022/04/19 08:52:05;;;;;;;14.63;10.93;;;14.40;89.00;;;;;;5139470;27;20641;-84
2022/04/19 08:57:33;;;;;;;10.07;4.13;;;14.60;89.40;;;;;;5140696;27;20588;-83
2022/04/19 09:00:01;;;;;;;5.13;4.40;;;14.80;87.80;;;;;;5142719;27;21244;-85
2022/04/19 09:02:29;;;;;;;5.00;4.60;;;14.90;87.90;;;;;;5146183;27;20657;-84
2022/04/19 09:05:13;;;;;;;4.70;4.30;;;15.00;87.30;;;;;;5146059;27;20648;-85
2022/04/19 09:07:40;;;;;;;5.57;4.50;;;15.10;86.40;;;;;;5150667;27;20621;-84
2022/04/19 09:10:11;;;;;;;5.10;4.70;;;15.10;85.40;;;;;;5147200;27;20624;-84
2022/04/19 09:12:54;;;;;;;6.17;3.90;;;15.10;84.20;;;;;;5148011;27;20618;-84
2022/04/19 09:15:21;;;;;;;6.30;4.43;;;15.20;82.80;;;;;;5144921;27;21001;-85
2022/04/19 09:17:49;;;;;;;6.13;4.67;;;15.40;82.60;;;;;;5144008;27;20653;-84
2022/04/19 09:20:18;;;;;;;3.93;3.57;;;15.50;83.00;;;;;;5151068;27;21247;-85
2022/04/19 09:22:48;;;;;;;6.67;4.37;;;15.60;81.10;;;;;;5147844;27;20629;-84
2022/04/19 09:25:20;;;;;;;5.43;4.90;;;15.60;80.70;;;;;;5143924;27;20682;-84
2022/04/19 09:27:50;;;;;;;4.10;3.70;;;15.70;80.10;;;;;;5149573;27;20633;-84
2022/04/19 09:30:19;;;;;;;4.00;3.60;;;15.70;78.00;;;;;;5146908;27;20606;-84
2022/04/19 09:33:03;;;;;;;3.00;2.80;;;15.80;76.00;;;;;;5148179;27;20628;-84
2022/04/19 09:35:31;;;;;;;4.20;3.40;;;15.80;75.70;;;;;;5144623;27;20732;-84
2022/04/19 09:37:58;;;;;;;2.80;2.60;;;15.90;74.60;;;;;;5144084;27;20656;-84
2022/04/19 09:40:32;;;;;;;2.90;2.63;;;15.90;72.40;;;;;;5147444;27;20640;-84
2022/04/19 09:43:10;;;;;;;3.87;3.47;;;16.00;72.30;;;;;;5148329;27;20959;-85
2022/04/19 09:45:54;;;;;;;4.20;3.40;;;15.90;71.60;;;;;;5144874;27;20995;-84
2022/04/19 09:48:23;;;;;;;3.43;3.13;;;16.00;70.60;;;;;;5137481;27;21185;-84
2022/04/19 09:50:51;;;;;;;4.40;4.00;;;16.00;68.80;;;;;;5147317;27;20630;-84
2022/04/19 09:53:20;;;;;;;5.20;3.53;;;16.00;69.30;;;;;;5147223;27;20637;-84
2022/04/19 09:55:48;;;;;;;4.70;4.07;;;16.00;69.70;;;;;;5149902;27;20728;-83
2022/04/19 09:58:17;;;;;;;3.30;2.93;;;16.20;71.10;;;;;;5144346;27;21086;-83
2022/04/19 10:00:44;;;;;;;6.20;4.00;;;16.20;68.90;;;;;;5148006;27;20634;-84
2022/04/19 10:08:42;;;;;;;2.90;2.70;;;16.40;63.50;;;;;;5147673;27;20641;-83
2022/04/19 10:11:10;;;;;;;4.53;3.00;;;16.40;62.40;;;;;;5146408;27;20606;-83
2022/04/19 10:13:40;;;;;;;3.33;3.00;;;16.40;62.80;;;;;;5143918;27;20981;-83
2022/04/19 10:16:12;;;;;;;3.00;2.80;;;16.50;62.80;;;;;;5146909;27;20679;-83
2022/04/19 10:18:39;;;;;;;4.20;3.80;;;16.70;62.30;;;;;;5145866;27;20721;-84
2022/04/19 10:21:09;;;;;;;5.20;3.47;;;16.80;62.40;;;;;;5146944;27;20610;-83
2022/04/19 10:23:38;;;;;;;5.13;3.90;;;16.90;60.80;;;;;;5142884;27;20610;-84
2022/04/19 10:26:16;;;;;;;4.93;3.07;;;17.10;62.30;;;;;;5146128;27;20653;-83
2022/04/19 10:28:45;;;;;;;4.33;2.80;;;17.40;62.10;;;;;;5144819;27;21166;-83
2022/04/19 10:31:13;;;;;;;6.43;3.53;;;17.70;60.70;;;;;;5147939;27;21043;-83
2022/04/19 10:33:51;;;;;;;4.17;3.80;;;18.00;59.60;;;;;;5139453;27;20650;-84
2022/04/19 10:36:20;;;;;;;4.17;3.27;;;18.20;59.30;;;;;;5142497;27;20622;-84
2022/04/19 10:39:08;;;;;;;4.60;3.97;;;18.40;58.50;;;;;;5144604;27;20661;-83
2022/04/19 10:41:58;;;;;;;5.30;3.53;;;18.60;59.00;;;;;;5141851;27;20628;-83
2022/04/19 10:44:31;;;;;;;4.07;3.77;;;18.90;59.10;;;;;;5143792;27;20655;-83
2022/04/19 10:47:11;;;;;;;4.33;3.30;;;19.20;58.40;;;;;;5140197;27;20675;-83
2022/04/19 10:49:48;;;;;;;4.50;3.40;;;19.30;54.30;;;;;;5144072;27;20644;-84
2022/04/19 10:52:49;;;;;;;4.80;4.40;;;19.20;54.40;;;;;;5143917;27;20617;-83
2022/04/19 10:55:22;;;;;;;4.30;3.90;;;19.10;54.70;;;;;;5146554;27;20656;-83
2022/04/19 11:00:45;;;;;;;4.07;3.60;;;19.10;55.00;;;;;;5144702;27;20620;-83
2022/04/19 11:03:13;;;;;;;3.70;3.40;;;19.40;55.80;;;;;;5146242;27;20717;-83
2022/04/19 11:05:42;;;;;;;3.07;2.87;;;19.60;54.90;;;;;;5142058;27;20653;-83
2022/04/19 11:08:39;;;;;;;4.83;3.67;;;19.80;52.50;;;;;;5144770;27;20629;-83
2022/04/19 11:11:23;;;;;;;3.40;3.20;;;19.90;52.50;;;;;;5050652;28;20622;-83
2022/04/19 11:14:19;;;;;;;3.80;3.50;;;20.00;52.00;;;;;;5136346;27;21017;-84
2022/04/19 11:16:51;;;;;;;4.27;3.87;;;20.10;52.70;;;;;;5139567;27;21218;-83
2022/04/19 11:19:20;;;;;;;3.97;3.20;;;20.60;54.70;;;;;;5139764;27;20660;-84
2022/04/19 11:21:54;;;;;;;3.90;3.53;;;21.00;52.20;;;;;;5143224;27;20736;-83
2022/04/19 11:24:58;;;;;;;4.40;3.87;;;21.40;51.50;;;;;;5143959;27;21197;-82
2022/04/19 11:27:45;;;;;;;3.77;3.47;;;21.50;49.70;;;;;;5146065;27;21087;-82
2022/04/19 11:30:14;;;;;;;3.13;2.93;;;21.80;51.60;;;;;;5141495;27;20665;-83
2022/04/19 11:32:43;;;;;;;4.03;3.63;;;22.20;50.20;;;;;;5146862;27;21152;-83
2022/04/19 11:35:17;;;;;;;4.00;3.70;;;22.40;50.70;;;;;;5142638;27;20645;-83
2022/04/19 11:37:45;;;;;;;4.23;3.83;;;22.60;49.40;;;;;;5143965;27;20612;-82
2022/04/19 11:48:44;;;;;;;4.53;3.30;;;22.70;46.30;;;;;;5142779;27;20643;-83
2022/04/19 11:51:13;;;;;;;3.70;3.40;;;23.20;47.00;;;;;;5144472;27;20628;-82
2022/04/19 11:53:40;;;;;;;5.30;4.20;;;23.30;46.50;;;;;;5143631;27;20648;-83
2022/04/19 11:56:07;;;;;;;4.73;4.33;;;23.40;46.60;;;;;;5143396;27;20621;-83
2022/04/19 11:58:36;;;;;;;4.53;3.97;;;23.60;46.30;;;;;;5143110;27;20673;-83
2022/04/19 12:01:05;;;;;;;4.40;4.00;;;23.90;47.20;;;;;;5141626;27;20625;-82
2022/04/19 12:03:34;;;;;;;4.70;4.17;;;24.20;44.20;;;;;;5143594;27;20652;-82
2022/04/19 12:06:10;;;;;;;7.67;4.67;;;24.30;44.60;;;;;;5142697;27;20729;-82
2022/04/19 12:08:40;;;;;;;6.97;4.43;;;24.20;44.60;;;;;;5141013;27;20610;-83
2022/04/19 12:11:09;;;;;;;5.17;4.73;;;24.20;44.40;;;;;;5143005;27;20657;-83
2022/04/19 12:13:38;;;;;;;4.23;3.83;;;24.10;43.40;;;;;;5144371;27;21147;-83
2022/04/19 12:16:09;;;;;;;5.53;5.07;;;24.30;44.90;;;;;;5147641;27;20617;-83
2022/04/19 12:18:38;;;;;;;5.10;4.70;;;24.40;42.90;;;;;;5143352;27;20622;-83
2022/04/19 12:21:06;;;;;;;5.23;4.83;;;24.30;42.90;;;;;;5146925;27;20715;-82
2022/04/19 12:23:35;;;;;;;5.27;4.77;;;24.10;43.40;;;;;;5143481;27;20646;-82
2022/04/19 12:26:05;;;;;;;4.07;3.77;;;24.30;43.00;;;;;;5141954;27;20622;-82
2022/04/19 12:28:40;;;;;;;4.90;4.50;;;24.30;42.40;;;;;;5144183;27;20644;-82
2022/04/19 12:31:07;;;;;;;4.37;3.97;;;24.10;42.30;;;;;;5142823;27;20620;-82
2022/04/19 12:33:35;;;;;;;4.87;4.47;;;24.10;42.80;;;;;;5139741;27;20646;-83
2022/04/19 12:36:02;;;;;;;4.67;4.27;;;24.20;42.30;;;;;;5139449;27;21243;-82
2022/04/19 12:38:31;;;;;;;4.87;4.47;;;24.30;42.00;;;;;;5141789;27;20970;-82
2022/04/19 12:40:59;;;;;;;4.77;4.37;;;24.40;41.90;;;;;;5143505;27;20992;-82
2022/04/19 12:43:47;;;;;;;6.10;5.60;;;24.30;42.10;;;;;;5135226;27;20645;-81
2022/04/19 12:46:14;;;;;;;5.73;5.23;;;24.60;42.80;;;;;;5141131;27;21179;-82
2022/04/19 12:48:52;;;;;;;5.73;5.23;;;24.90;42.20;;;;;;5143078;27;21022;-82
2022/04/19 12:51:25;;;;;;;5.60;5.10;;;25.10;41.80;;;;;;5149862;27;20631;-82
2022/04/19 12:54:06;;;;;;;5.37;4.90;;;24.90;40.80;;;;;;5146837;27;20668;-82
2022/04/19 12:56:40;;;;;;;5.70;5.20;;;24.80;40.80;;;;;;5145442;27;20602;-82
2022/04/19 12:59:07;;;;;;;4.50;4.20;;;24.70;41.10;;;;;;5145699;27;20755;-82
2022/04/19 13:01:34;;;;;;;4.40;3.73;;;24.60;40.00;;;;;;5146726;27;20645;-81
2022/04/19 13:04:03;;;;;;;5.30;4.90;;;24.70;40.70;;;;;;5141989;27;21003;-81
2022/04/19 13:12:19;;;;;;;6.97;3.63;;;25.10;39.40;;;;;;5143097;27;20674;-82
2022/04/19 13:14:47;;;;;;;5.27;4.83;;;25.50;40.50;;;;;;5148002;27;20615;-81
2022/04/19 13:17:14;;;;;;;5.10;4.70;;;25.90;39.60;;;;;;5147680;27;20620;-81
2022/04/19 13:19:41;;;;;;;8.00;4.87;;;26.00;39.00;;;;;;5144027;27;21100;-81
2022/04/19 13:22:08;;;;;;;4.53;4.10;;;26.10;38.50;;;;;;5145445;27;21261;-82
2022/04/19 13:24:36;;;;;;;4.87;4.47;;;26.10;38.80;;;;;;5146082;27;20612;-82
2022/04/19 13:27:05;;;;;;;6.50;4.17;;;26.30;39.40;;;;;;5149800;27;20657;-82
2022/04/19 13:29:33;;;;;;;5.17;4.67;;;26.40;38.10;;;;;;5148080;27;20609;-82
2022/04/19 13:32:00;;;;;;;5.70;4.20;;;26.20;38.00;;;;;;5146730;27;20688;-82
2022/04/19 13:34:27;;;;;;;4.73;4.33;;;26.10;37.60;;;;;;5146882;27;20678;-82
2022/04/19 13:36:56;;;;;;;5.60;3.90;;;26.00;38.30;;;;;;5149668;27;21340;-82
2022/04/19 13:39:23;;;;;;;4.33;3.93;;;26.10;38.70;;;;;;5147100;27;20653;-82
2022/04/19 13:41:50;;;;;;;4.70;4.30;;;26.50;38.90;;;;;;5148358;27;20613;-82
2022/04/19 13:44:19;;;;;;;4.77;4.37;;;26.80;38.00;;;;;;5145896;27;21210;-82
2022/04/19 13:46:47;;;;;;;5.17;4.30;;;27.10;37.40;;;;;;5146575;27;20977;-83